Time;durP1;ratioP1;P1;durP2;ratioP2;P2;SDS_P1;SDS_P2;PMS_P1;PMS_P2;Temp;Humidity;BMP_temperature;BMP_pressure;BME280_temperature;BME280_humidity;BME280_pressure;Samples;Min_cycle;Max_cycle;Signal;HPM_P1;HPM_P2
2022/03/20 00:00:27;;;;;;;16.92;7.30;;;;;;;4.93;100.00;104071.97;10189753;28;20138;-69
2022/03/20 00:05:24;;;;;;;14.05;7.20;;;;;;;4.84;100.00;104068.56;10188160;28;20050;-68
2022/03/20 00:10:20;;;;;;;14.80;7.57;;;;;;;4.70;100.00;104060.53;10188845;28;20046;-68
2022/03/20 00:15:17;;;;;;;15.82;7.65;;;;;;;4.56;100.00;104059.59;10187611;28;20084;-68
2022/03/20 00:20:13;;;;;;;16.55;8.75;;;;;;;4.60;100.00;104055.47;10189363;28;20464;-69
2022/03/20 00:25:11;;;;;;;14.38;8.00;;;;;;;4.60;100.00;104055.47;10187357;28;20078;-69
2022/03/20 00:30:08;;;;;;;16.17;7.72;;;;;;;4.54;100.00;104045.41;10188195;28;20084;-69
2022/03/20 00:35:05;;;;;;;20.23;9.60;;;;;;;4.42;100.00;104043.22;10186576;28;20057;-70
2022/03/20 00:40:02;;;;;;;19.92;8.68;;;;;;;4.46;100.00;104034.72;10187237;28;20042;-69
2022/03/20 00:44:59;;;;;;;15.18;9.38;;;;;;;4.41;100.00;104021.75;10187543;28;20050;-69
2022/03/20 00:49:55;;;;;;;18.20;8.82;;;;;;;4.46;100.00;104032.00;10186768;28;20103;-69
2022/03/20 00:54:52;;;;;;;18.10;9.65;;;;;;;4.39;100.00;104023.81;10185490;28;20065;-69
2022/03/20 00:59:49;;;;;;;18.63;10.70;;;;;;;4.33;100.00;104017.28;10186981;28;20050;-69
2022/03/20 01:04:46;;;;;;;20.42;12.57;;;;;;;4.22;100.00;104020.50;10186580;28;20100;-69
2022/03/20 01:09:43;;;;;;;19.73;11.55;;;;;;;4.22;100.00;104020.50;10186033;28;20112;-69
2022/03/20 01:14:40;;;;;;;21.30;12.65;;;;;;;4.16;100.00;104018.59;10187210;28;20092;-70
2022/03/20 01:19:37;;;;;;;19.02;12.02;;;;;;;4.16;100.00;103999.66;10187412;28;20674;-69
2022/03/20 01:24:33;;;;;;;24.75;13.48;;;;;;;4.13;100.00;104002.72;10194939;28;20046;-70
2022/03/20 01:29:30;;;;;;;20.08;11.55;;;;;;;4.20;100.00;103998.19;10193164;28;20077;-69
2022/03/20 01:34:27;;;;;;;22.27;13.73;;;;;;;3.86;100.00;103993.50;10194931;28;20054;-69
2022/03/20 01:39:23;;;;;;;25.33;12.93;;;;;;;3.79;100.00;103982.63;10193048;28;20500;-70
2022/03/20 01:44:19;;;;;;;25.33;12.27;;;;;;;3.95;100.00;103976.13;10194280;28;20042;-69
2022/03/20 01:49:16;;;;;;;21.98;12.77;;;;;;;3.84;100.00;103969.34;10192557;28;20172;-70
2022/03/20 01:54:14;;;;;;;20.08;12.25;;;;;;;3.89;100.00;103966.88;10193994;28;20100;-69
2022/03/20 01:59:10;;;;;;;19.48;12.35;;;;;;;3.99;100.00;103956.59;10175758;28;20042;-70
2022/03/20 02:04:06;;;;;;;27.20;13.90;;;;;;;3.73;100.00;103953.59;10172926;28;20053;-69
2022/03/20 02:09:04;;;;;;;24.40;14.43;;;;;;;3.68;100.00;103947.94;10185867;28;20075;-69
2022/03/20 02:14:01;;;;;;;22.92;13.55;;;;;;;3.81;100.00;103942.66;10177148;28;20104;-69
2022/03/20 02:18:58;;;;;;;27.08;13.98;;;;;;;3.81;100.00;103931.84;10150670;28;20393;-69
2022/03/20 02:23:54;;;;;;;26.17;14.68;;;;;;;3.71;100.00;103925.88;10151971;28;20069;-69
2022/03/20 02:28:51;;;;;;;26.13;13.75;;;;;;;3.67;100.00;103930.03;10150171;28;20093;-69
2022/03/20 02:33:50;;;;;;;22.02;13.80;;;;;;;3.69;100.00;103906.28;10148800;28;20056;-70
2022/03/20 02:38:47;;;;;;;20.17;12.35;;;;;;;3.65;100.00;103905.03;10151182;28;20492;-69
2022/03/20 02:43:50;;;;;;;21.67;12.98;;;;;;;3.58;100.00;103900.38;10152544;28;20132;-69
2022/03/20 02:48:47;;;;;;;21.45;13.52;;;;;;;3.42;100.00;103899.78;10149497;28;20508;-68
2022/03/20 02:53:44;;;;;;;21.88;14.48;;;;;;;3.37;100.00;103886.84;10144470;28;20078;-69
2022/03/20 02:58:40;;;;;;;25.77;14.00;;;;;;;3.30;100.00;103891.34;10145410;28;20843;-69
2022/03/20 03:03:37;;;;;;;22.45;12.82;;;;;;;3.28;100.00;103871.75;10151877;28;20081;-68
2022/03/20 03:15:19;;;;;;;23.13;12.88;;;;;;;3.37;100.00;103882.25;10101164;28;20054;-69
2022/03/20 03:19:23;;;;;;;22.50;14.50;;;;;;;3.30;100.00;103875.13;10147000;28;20137;-69
2022/03/20 03:24:19;;;;;;;20.20;13.55;;;;;;;3.40;100.00;103870.22;10150320;28;20084;-69
2022/03/20 03:29:16;;;;;;;22.15;13.90;;;;;;;3.22;100.00;103861.69;10150188;28;20046;-68
2022/03/20 03:39:27;;;;;;;24.83;14.05;;;;;;;3.25;100.00;103858.59;10148909;28;20118;-68
2022/03/20 03:44:26;;;;;;;22.67;14.50;;;;;;;3.19;100.00;103853.97;10144681;28;20157;-69
2022/03/20 03:49:22;;;;;;;25.60;14.85;;;;;;;3.03;100.00;103858.56;10152065;28;20078;-68
2022/03/20 03:54:19;;;;;;;25.02;13.48;;;;;;;3.06;100.00;103841.97;10198795;28;20053;-68
2022/03/20 03:59:16;;;;;;;25.80;14.82;;;;;;;2.97;100.00;103835.03;10190721;28;20077;-69
2022/03/20 04:04:12;;;;;;;25.58;15.15;;;;;;;3.04;100.00;103826.97;10191491;28;20100;-69
2022/03/20 04:09:09;;;;;;;24.70;14.07;;;;;;;2.82;100.00;103821.53;10190669;28;20133;-69
2022/03/20 04:14:05;;;;;;;26.13;14.23;;;;;;;3.01;100.00;103828.19;10191242;28;20151;-68
2022/03/20 04:19:02;;;;;;;22.98;14.40;;;;;;;2.71;100.00;103822.84;10189623;28;20550;-68
2022/03/20 04:23:59;;;;;;;22.48;14.68;;;;;;;2.72;100.00;103813.72;10190901;28;20049;-68
2022/03/20 04:28:56;;;;;;;26.85;15.73;;;;;;;2.82;100.00;103807.19;10190114;28;20053;-68
2022/03/20 04:33:56;;;;;;;25.05;15.50;;;;;;;2.82;100.00;103799.09;10190654;28;20046;-68
2022/03/20 04:38:55;;;;;;;26.90;15.45;;;;;;;2.75;100.00;103807.09;10189252;28;20046;-69
2022/03/20 04:43:52;;;;;;;25.60;15.90;;;;;;;2.69;100.00;103808.72;10189565;28;20088;-69
2022/03/20 04:59:18;;;;;;;26.08;16.02;;;;;;;2.74;100.00;103811.69;10188149;28;20050;-68
2022/03/20 05:04:15;;;;;;;26.17;15.77;;;;;;;2.59;100.00;103794.63;10186453;28;20045;-68
2022/03/20 05:14:27;;;;;;;24.85;15.65;;;;;;;2.28;100.00;103789.47;10189705;28;20076;-68
2022/03/20 05:19:28;;;;;;;24.92;15.00;;;;;;;2.24;100.00;103794.38;10188221;28;20307;-68
2022/03/20 05:24:25;;;;;;;22.40;13.70;;;;;;;2.45;100.00;103792.81;10188726;28;20108;-68
2022/03/20 05:29:22;;;;;;;29.45;17.15;;;;;;;2.39;100.00;103785.44;10187591;28;20100;-68
2022/03/20 05:34:20;;;;;;;25.90;15.05;;;;;;;2.38;100.00;103794.59;10188677;28;20089;-68
2022/03/20 05:39:17;;;;;;;23.67;15.23;;;;;;;2.27;100.00;103799.41;10187920;28;20084;-68
2022/03/20 05:44:17;;;;;;;27.58;16.10;;;;;;;2.40;100.00;103792.53;10184921;28;20076;-68
2022/03/20 05:49:21;;;;;;;22.27;13.98;;;;;;;2.34;100.00;103787.88;10187789;28;20062;-68
2022/03/20 05:54:18;;;;;;;26.98;15.32;;;;;;;2.37;100.00;103798.28;10187350;28;20042;-68
2022/03/20 05:59:15;;;;;;;25.77;14.90;;;;;;;2.37;100.00;103791.06;10187713;28;20129;-68
2022/03/20 06:04:13;;;;;;;25.33;16.13;;;;;;;2.47;100.00;103783.47;10187229;28;20133;-68
2022/03/20 06:09:10;;;;;;;28.30;16.02;;;;;;;2.30;100.00;103772.06;10194296;28;20050;-68
2022/03/20 06:14:08;;;;;;;26.45;15.93;;;;;;;2.42;100.00;103776.97;10194222;28;20046;-67
2022/03/20 06:19:07;;;;;;;26.25;15.30;;;;;;;2.40;100.00;103765.53;10194242;28;20493;-67
2022/03/20 06:24:04;;;;;;;26.90;14.90;;;;;;;2.54;100.00;103783.56;10195141;28;20046;-65
2022/03/20 06:29:02;;;;;;;29.02;16.58;;;;;;;2.40;100.00;103779.03;10192973;28;20067;-68
2022/03/20 06:33:59;;;;;;;26.20;14.95;;;;;;;2.57;100.00;103777.78;10194881;28;20069;-69
2022/03/20 06:38:56;;;;;;;21.67;14.30;;;;;;;2.68;100.00;103769.19;10193141;28;20165;-66
2022/03/20 06:43:53;;;;;;;25.85;15.68;;;;;;;2.66;100.00;103771.25;10194474;28;20126;-68
2022/03/20 06:48:49;;;;;;;22.27;13.63;;;;;;;2.76;100.00;103764.69;10193554;28;20065;-68
2022/03/20 06:53:46;;;;;;;24.48;13.38;;;;;;;2.84;100.00;103772.72;10185503;28;20121;-68
2022/03/20 06:58:43;;;;;;;25.40;13.80;;;;;;;2.88;100.00;103784.81;10192674;28;20076;-69
2022/03/20 07:03:40;;;;;;;26.00;13.60;;;;;;;2.97;100.00;103770.16;10191461;28;20085;-68
2022/03/20 07:08:37;;;;;;;23.77;14.55;;;;;;;3.03;100.00;103763.97;10192943;28;20558;-68
2022/03/20 07:13:48;;;;;;;24.67;13.95;;;;;;;3.22;100.00;103758.94;10192663;28;20092;-68
2022/03/20 07:18:45;;;;;;;21.90;13.75;;;;;;;3.23;100.00;103758.75;10191963;28;20050;-68
2022/03/20 07:23:42;;;;;;;25.25;13.43;;;;;;;3.32;100.00;103762.19;10192765;28;20134;-68
2022/03/20 07:33:54;;;;;;;22.27;13.07;;;;;;;3.64;100.00;103757.22;10192451;28;20046;-68
2022/03/20 07:38:50;;;;;;;22.52;12.98;;;;;;;3.77;100.00;103751.91;10190814;28;20057;-68
2022/03/20 07:43:48;;;;;;;24.58;13.18;;;;;;;3.83;100.00;103744.84;10192205;28;20124;-68
2022/03/20 07:48:45;;;;;;;23.30;13.35;;;;;;;3.96;100.00;103739.53;10163963;28;20129;-68
2022/03/20 07:53:41;;;;;;;18.55;12.07;;;;;;;4.08;100.00;103726.25;10180765;28;20088;-68
2022/03/20 07:58:37;;;;;;;20.33;11.63;;;;;;;4.21;98.70;103718.22;10191294;28;20088;-69
2022/03/20 08:03:34;;;;;;;21.42;11.68;;;;;;;4.39;97.68;103717.66;10190496;28;20225;-68
2022/03/20 08:08:30;;;;;;;20.40;12.25;;;;;;;4.53;93.26;103713.13;10190632;28;20081;-69
2022/03/20 08:13:31;;;;;;;18.38;10.73;;;;;;;4.71;86.87;103717.97;10183687;28;20132;-68
2022/03/20 08:18:27;;;;;;;19.90;10.80;;;;;;;4.85;86.53;103706.94;10184222;28;20046;-68
2022/03/20 08:23:24;;;;;;;18.13;11.90;;;;;;;4.99;78.81;103701.53;10186595;28;20073;-68
2022/03/20 08:28:20;;;;;;;23.38;13.15;;;;;;;5.17;80.71;103693.59;10182535;28;20053;-69
2022/03/20 08:33:17;;;;;;;22.65;11.70;;;;;;;5.33;82.14;103691.53;10184369;28;20056;-69
2022/03/20 08:38:13;;;;;;;18.67;11.18;;;;;;;5.49;74.57;103683.78;10183246;28;20042;-69
2022/03/20 08:43:15;;;;;;;22.73;11.23;;;;;;;5.67;75.11;103688.56;10184228;28;20177;-68
2022/03/20 08:48:11;;;;;;;20.05;10.88;;;;;;;5.87;65.13;103676.81;10182933;28;20058;-70
2022/03/20 08:53:08;;;;;;;21.35;11.13;;;;;;;6.09;61.04;103659.22;10183092;28;20133;-69
2022/03/20 08:58:04;;;;;;;21.13;11.60;;;;;;;6.28;59.92;103660.16;10183821;28;20496;-69
2022/03/20 09:03:01;;;;;;;23.33;10.65;;;;;;;6.47;58.95;103644.81;10183641;28;20053;-68
2022/03/20 09:07:57;;;;;;;21.95;11.40;;;;;;;6.68;62.55;103654.53;10189182;28;20499;-70
2022/03/20 09:13:00;;;;;;;20.98;11.88;;;;;;;6.85;57.24;103641.22;10189541;28;20085;-70
2022/03/20 09:23:13;;;;;;;19.67;11.63;;;;;;;7.21;65.73;103633.38;10189225;28;20132;-67
2022/03/20 09:28:12;;;;;;;20.10;12.52;;;;;;;7.37;58.32;103625.44;10187909;28;20473;-67
2022/03/20 09:33:09;;;;;;;21.73;12.57;;;;;;;7.53;59.47;103625.94;10189348;28;20500;-67
2022/03/20 09:38:07;;;;;;;27.05;13.07;;;;;;;7.59;54.35;103611.44;10187696;28;20806;-69
2022/03/20 09:43:05;;;;;;;19.73;12.82;;;;;;;7.83;53.92;103617.00;10193853;28;20041;-69
2022/03/20 09:48:03;;;;;;;18.67;11.40;;;;;;;8.05;54.23;103604.53;10189563;28;20711;-69
2022/03/20 09:53:00;;;;;;;25.83;13.70;;;;;;;8.28;56.40;103598.34;10192918;28;20069;-69
2022/03/20 09:57:58;;;;;;;25.58;13.05;;;;;;;8.56;56.01;103597.78;10190366;28;20104;-69
2022/03/20 10:02:54;;;;;;;26.98;15.02;;;;;;;8.70;52.01;103581.19;10191389;28;20084;-69
2022/03/20 10:07:51;;;;;;;20.73;13.40;;;;;;;8.99;52.36;103580.25;10195385;28;20062;-69
2022/03/20 10:12:58;;;;;;;24.25;13.93;;;;;;;9.06;48.20;103548.22;10195525;28;20844;-69
2022/03/20 10:18:04;;;;;;;23.02;14.20;;;;;;;9.51;47.03;103559.56;10195313;28;20072;-69
2022/03/20 10:23:01;;;;;;;23.65;14.10;;;;;;;10.07;51.13;103552.47;10195253;28;20045;-69
2022/03/20 10:28:00;;;;;;;23.17;14.30;;;;;;;10.14;45.20;103536.72;10193412;28;20065;-69
2022/03/20 10:32:57;;;;;;;22.23;13.13;;;;;;;10.50;45.21;103543.69;10193232;28;20058;-69
2022/03/20 10:37:55;;;;;;;26.77;13.55;;;;;;;10.55;42.98;103537.47;10192911;28;20054;-67
2022/03/20 10:43:12;;;;;;;20.25;13.63;;;;;;;10.86;44.88;103522.38;10193635;28;20145;-69
2022/03/20 10:48:12;;;;;;;28.23;15.88;;;;;;;11.02;42.98;103525.31;10188584;28;20046;-68
2022/03/20 10:53:09;;;;;;;20.40;15.20;;;;;;;10.94;40.47;103510.16;10191949;28;20132;-68
2022/03/20 10:58:19;;;;;;;21.83;14.00;;;;;;;11.09;41.34;103504.91;10192908;28;20135;-69
2022/03/20 11:03:19;;;;;;;23.30;13.52;;;;;;;11.26;38.75;103495.81;10192579;28;20573;-69
2022/03/20 11:08:18;;;;;;;20.40;12.93;;;;;;;11.72;38.37;103501.78;10191482;28;20045;-69
2022/03/20 11:13:15;;;;;;;20.88;13.85;;;;;;;12.27;36.45;103492.47;10191001;28;20467;-69
2022/03/20 11:18:14;;;;;;;22.83;12.20;;;;;;;12.49;45.85;103477.84;10186056;28;20128;-68
2022/03/20 11:23:13;;;;;;;21.48;12.85;;;;;;;12.32;38.88;103467.84;10186465;28;20081;-68
2022/03/20 11:28:10;;;;;;;21.48;13.38;;;;;;;12.25;40.25;103445.28;10187991;28;20555;-69
2022/03/20 11:33:09;;;;;;;22.80;14.25;;;;;;;12.22;36.41;103462.28;10187506;28;20046;-65
2022/03/20 11:38:20;;;;;;;20.90;13.43;;;;;;;12.77;34.17;103458.25;10183324;28;20085;-63
2022/03/20 11:43:21;;;;;;;23.63;13.35;;;;;;;12.98;34.04;103452.88;10181617;28;20076;-65
2022/03/20 11:48:18;;;;;;;22.65;13.77;;;;;;;13.17;33.65;103459.53;10182464;28;20148;-64
2022/03/20 11:53:28;;;;;;;25.23;15.07;;;;;;;13.37;34.07;103430.53;10184480;28;20037;-65
2022/03/20 11:58:24;;;;;;;17.75;11.98;;;;;;;14.03;34.21;103408.59;10181886;28;20100;-65
2022/03/20 12:03:31;;;;;;;24.55;13.98;;;;;;;14.45;30.72;103415.69;10184378;28;20140;-65
2022/03/20 12:09:03;;;;;;;22.15;14.20;;;;;;;14.78;31.81;103401.59;10181892;28;20100;-65
2022/03/20 12:14:16;;;;;;;22.77;13.40;;;;;;;15.43;30.30;103407.06;10173221;28;20046;-65
2022/03/20 12:19:15;;;;;;;23.55;14.30;;;;;;;15.80;29.18;103400.22;10190827;28;20050;-65
2022/03/20 12:24:35;;;;;;;21.17;14.15;;;;;;;16.40;29.53;103403.50;10183108;28;20050;-65
2022/03/20 12:29:35;;;;;;;22.45;13.55;;;;;;;16.62;29.51;103389.19;10176690;28;20065;-68
2022/03/20 12:34:31;;;;;;;21.85;13.05;;;;;;;16.53;26.26;103349.53;10183392;28;20058;-68
2022/03/20 12:39:48;;;;;;;21.27;14.10;;;;;;;17.02;27.31;103338.13;10181644;28;20046;-65
2022/03/20 12:44:49;;;;;;;21.30;14.48;;;;;;;17.35;27.08;103324.34;10181582;28;20108;-65
2022/03/20 12:49:51;;;;;;;18.58;12.80;;;;;;;17.62;25.25;103309.81;10180705;28;20096;-65
2022/03/20 12:54:53;;;;;;;19.50;13.88;;;;;;;18.00;26.71;103311.66;10182335;28;20038;-65
2022/03/20 13:00:07;;;;;;;23.77;12.98;;;;;;;17.78;24.28;103310.38;10181566;28;20088;-65
2022/03/20 13:05:08;;;;;;;20.40;13.15;;;;;;;18.25;23.70;103297.31;10179658;28;20053;-65
2022/03/20 13:10:04;;;;;;;19.75;13.15;;;;;;;18.63;22.81;103294.28;10181657;28;20433;-63
2022/03/20 13:15:01;;;;;;;19.80;12.68;;;;;;;18.40;24.26;103282.31;10184489;28;20563;-64
2022/03/20 13:19:57;;;;;;;17.30;12.68;;;;;;;18.69;21.97;103295.03;10192328;28;20483;-64
2022/03/20 13:24:54;;;;;;;17.02;12.23;;;;;;;17.73;21.78;103284.72;10192023;28;20608;-63
2022/03/20 13:29:53;;;;;;;21.17;12.18;;;;;;;17.79;22.09;103267.72;10192622;28;20054;-64
2022/03/20 13:34:49;;;;;;;16.17;11.50;;;;;;;18.60;21.17;103272.75;10190860;28;20070;-64
2022/03/20 13:39:57;;;;;;;16.25;11.00;;;;;;;18.95;19.87;103264.78;10191063;28;20061;-65
2022/03/20 13:44:54;;;;;;;17.38;11.88;;;;;;;19.02;19.65;103254.09;10190965;28;20194;-64
2022/03/20 13:49:53;;;;;;;15.27;11.13;;;;;;;19.34;20.00;103246.66;10189390;28;20041;-64
2022/03/20 13:55:00;;;;;;;17.75;12.00;;;;;;;19.16;20.77;103239.34;10190711;28;20049;-64
2022/03/20 14:00:03;;;;;;;15.13;11.43;;;;;;;19.04;20.49;103251.81;10190426;28;20123;-64
2022/03/20 14:05:10;;;;;;;16.75;10.98;;;;;;;18.84;21.04;103241.22;10187985;28;20045;-64
2022/03/20 14:10:18;;;;;;;18.92;11.23;;;;;;;18.65;21.13;103233.84;10149164;28;20575;-64
2022/03/20 14:15:15;;;;;;;20.02;12.02;;;;;;;18.66;21.76;103226.38;10150228;28;20054;-64
2022/03/20 14:20:13;;;;;;;17.23;11.73;;;;;;;18.47;21.13;103220.97;10150113;28;20054;-64
2022/03/20 14:25:10;;;;;;;16.90;10.90;;;;;;;18.71;20.08;103221.53;10149819;28;20130;-64
2022/03/20 14:40:48;;;;;;;17.30;11.40;;;;;;;18.54;19.80;103193.66;10149373;28;20583;-64
2022/03/20 14:45:44;;;;;;;17.23;9.80;;;;;;;18.47;19.75;103193.25;10150304;28;20050;-64
2022/03/20 14:50:41;;;;;;;16.30;10.63;;;;;;;18.17;21.02;103190.06;10147856;28;20439;-64
2022/03/20 14:55:38;;;;;;;18.33;12.02;;;;;;;17.93;20.48;103200.53;10148388;28;20452;-64
2022/03/20 15:00:34;;;;;;;18.50;10.75;;;;;;;18.10;21.22;103173.03;10148571;28;20081;-66
2022/03/20 15:05:31;;;;;;;18.30;10.35;;;;;;;17.73;20.88;103196.19;10148654;28;20042;-66
2022/03/20 15:15:42;;;;;;;21.48;11.98;;;;;;;17.12;21.45;103173.25;10148970;28;20046;-64
2022/03/20 15:20:39;;;;;;;20.77;11.05;;;;;;;16.43;22.04;103168.25;10148281;28;20108;-64
2022/03/20 15:25:36;;;;;;;16.60;10.70;;;;;;;16.51;22.79;103170.31;10149351;28;20552;-64
2022/03/20 15:30:32;;;;;;;15.25;10.45;;;;;;;16.03;22.64;103164.06;10144132;28;20460;-63
2022/03/20 15:35:30;;;;;;;16.67;10.88;;;;;;;15.76;23.43;103174.59;10150307;28;20047;-64
2022/03/20 15:40:27;;;;;;;15.15;10.23;;;;;;;15.96;23.06;103183.75;10149969;28;20137;-64
2022/03/20 15:45:23;;;;;;;16.23;10.15;;;;;;;16.07;23.62;103173.41;10151357;28;20125;-64
2022/03/20 15:50:20;;;;;;;19.20;10.18;;;;;;;16.66;22.73;103173.97;10158105;28;20078;-64
2022/03/20 15:55:17;;;;;;;17.50;10.43;;;;;;;16.59;23.09;103175.19;10216077;28;20060;-64
2022/03/20 16:00:20;;;;;;;15.75;10.55;;;;;;;16.94;21.92;103173.00;10192499;28;20053;-65
2022/03/20 16:05:16;;;;;;;17.77;10.55;;;;;;;17.17;21.80;103179.53;10190795;28;20073;-65
2022/03/20 16:10:13;;;;;;;16.98;10.45;;;;;;;16.89;23.19;103172.25;10191691;28;20049;-66
2022/03/20 16:15:12;;;;;;;17.65;11.30;;;;;;;16.32;23.34;103175.00;10191163;28;20140;-66
2022/03/20 16:20:10;;;;;;;16.88;11.30;;;;;;;16.03;22.99;103166.84;10188844;28;20540;-65
2022/03/20 16:30:22;;;;;;;16.60;10.15;;;;;;;15.63;23.72;103163.41;10185673;28;20562;-64
2022/03/20 16:35:18;;;;;;;20.13;11.18;;;;;;;15.38;24.23;103161.75;10183782;28;20128;-65
2022/03/20 16:40:15;;;;;;;15.50;10.27;;;;;;;14.13;24.65;103181.34;10187807;28;20519;-65
2022/03/20 16:45:14;;;;;;;19.33;10.40;;;;;;;14.39;25.24;103180.13;10190840;28;20053;-65
2022/03/20 16:50:12;;;;;;;21.60;10.93;;;;;;;13.95;25.91;103175.38;10191279;28;20507;-64
2022/03/20 16:55:09;;;;;;;20.60;11.07;;;;;;;13.48;27.19;103184.84;10191915;28;20077;-65
2022/03/20 17:00:09;;;;;;;21.33;11.00;;;;;;;13.72;27.65;103182.31;10191597;28;20092;-65
2022/03/20 17:05:06;;;;;;;20.23;11.15;;;;;;;13.00;28.21;103187.06;10191799;28;20100;-64
2022/03/20 17:10:09;;;;;;;23.48;10.85;;;;;;;12.75;27.79;103196.91;10190431;28;20088;-65
2022/03/20 17:15:10;;;;;;;20.17;11.10;;;;;;;12.69;28.26;103197.97;10190549;28;20069;-65
2022/03/20 17:20:07;;;;;;;19.60;11.38;;;;;;;12.55;29.50;103196.84;10190298;28;20107;-65
2022/03/20 17:25:07;;;;;;;20.92;11.40;;;;;;;12.12;28.89;103187.94;10186597;28;20770;-65
2022/03/20 17:30:05;;;;;;;17.23;11.25;;;;;;;12.33;29.91;103195.16;10180435;28;20054;-65
2022/03/20 17:35:03;;;;;;;17.25;11.00;;;;;;;11.93;30.47;103213.09;10185389;28;20080;-66
2022/03/20 17:40:08;;;;;;;19.60;11.45;;;;;;;11.87;29.68;103205.91;10188735;28;20085;-65
2022/03/20 17:45:07;;;;;;;20.80;11.43;;;;;;;11.73;29.80;103212.94;10189516;28;20046;-65
2022/03/20 17:50:05;;;;;;;21.90;12.55;;;;;;;11.54;30.30;103205.16;10189561;28;20054;-65
2022/03/20 17:55:03;;;;;;;22.67;12.23;;;;;;;11.52;30.49;103217.47;10188573;28;20042;-65
2022/03/20 18:00:00;;;;;;;21.75;12.20;;;;;;;11.24;30.82;103221.34;10191042;28;20054;-64
2022/03/20 18:10:35;;;;;;;17.77;10.95;;;;;;;11.08;31.61;103206.69;10190163;28;20054;-64
2022/03/20 18:15:34;;;;;;;21.20;11.10;;;;;;;10.94;32.31;103203.56;10155149;28;20050;-64
2022/03/20 18:20:32;;;;;;;23.60;11.50;;;;;;;10.86;32.06;103198.53;10156321;28;20074;-64
2022/03/20 18:25:30;;;;;;;21.48;11.65;;;;;;;10.68;32.90;103192.38;10156718;28;20104;-64
2022/03/20 18:30:29;;;;;;;19.10;12.00;;;;;;;10.65;32.85;103192.91;10156720;28;20083;-64
2022/03/20 18:35:32;;;;;;;18.88;10.68;;;;;;;10.78;32.99;103212.72;10156760;28;20594;-65
2022/03/20 18:40:28;;;;;;;21.25;11.43;;;;;;;10.58;32.44;103214.13;10156327;28;20519;-64
2022/03/20 18:45:25;;;;;;;19.67;11.98;;;;;;;10.47;33.04;103228.81;10153917;28;20331;-64
2022/03/20 18:50:24;;;;;;;18.63;11.43;;;;;;;10.56;34.06;103227.28;10155691;28;20056;-64
2022/03/20 18:55:25;;;;;;;23.00;11.50;;;;;;;10.35;33.21;103231.69;10152075;28;20050;-64
2022/03/20 19:00:21;;;;;;;20.13;11.07;;;;;;;10.31;33.88;103234.06;10155531;28;20100;-66
2022/03/20 19:05:18;;;;;;;22.63;11.95;;;;;;;10.38;33.48;103242.09;10150323;28;20520;-64
2022/03/20 19:10:17;;;;;;;17.40;10.65;;;;;;;10.42;33.55;103253.34;10150066;28;20058;-64
2022/03/20 19:15:16;;;;;;;18.40;10.30;;;;;;;10.28;32.61;103242.81;10150251;28;20545;-64
2022/03/20 19:20:13;;;;;;;17.23;10.60;;;;;;;10.16;33.95;103252.97;10149876;28;20065;-64
2022/03/20 19:25:10;;;;;;;18.52;10.70;;;;;;;10.20;33.39;103254.13;10149900;28;20378;-64
2022/03/20 19:30:08;;;;;;;20.73;10.73;;;;;;;10.04;33.67;103271.41;10150660;28;20061;-65
2022/03/20 19:40:20;;;;;;;22.13;10.27;;;;;;;9.79;34.28;103261.75;10153658;28;20050;-64
2022/03/20 19:45:17;;;;;;;16.42;9.80;;;;;;;9.81;34.52;103259.59;10149634;28;20481;-63
2022/03/20 19:50:15;;;;;;;17.67;10.02;;;;;;;9.76;34.80;103254.06;10156390;28;20104;-65
2022/03/20 19:55:13;;;;;;;20.85;10.05;;;;;;;9.62;34.71;103255.47;10209799;28;20478;-65
2022/03/20 20:00:10;;;;;;;17.65;10.27;;;;;;;9.23;36.28;103263.56;10204854;28;20077;-64
2022/03/20 20:05:07;;;;;;;19.58;10.25;;;;;;;9.38;36.38;103260.28;10187971;28;20157;-65
2022/03/20 20:10:09;;;;;;;15.13;9.10;;;;;;;9.27;35.80;103270.22;10187621;28;20077;-64
2022/03/20 20:15:06;;;;;;;19.38;10.27;;;;;;;9.30;35.76;103266.97;10185510;28;20523;-64
2022/03/20 20:20:08;;;;;;;15.93;9.90;;;;;;;9.27;36.71;103273.75;10183447;28;20141;-64
2022/03/20 20:25:07;;;;;;;18.02;9.88;;;;;;;9.16;37.21;103269.19;10186152;28;20134;-66
2022/03/20 20:30:07;;;;;;;17.65;8.88;;;;;;;9.06;36.17;103267.13;10183775;28;20050;-64
2022/03/20 20:35:03;;;;;;;17.75;9.52;;;;;;;9.09;36.67;103256.78;10183101;28;20153;-64
2022/03/20 20:40:00;;;;;;;15.63;9.02;;;;;;;8.97;37.90;103254.13;10191892;28;20060;-64
2022/03/20 20:44:57;;;;;;;16.88;9.43;;;;;;;8.80;37.97;103249.44;10191065;28;20451;-64
2022/03/20 20:49:53;;;;;;;17.02;9.45;;;;;;;8.81;39.30;103261.19;10143843;28;20504;-64
2022/03/20 20:54:50;;;;;;;16.77;9.50;;;;;;;8.67;38.08;103259.81;10143816;28;20081;-64
2022/03/20 20:59:47;;;;;;;18.40;9.43;;;;;;;8.79;38.21;103257.88;10147162;28;20125;-64
2022/03/20 21:04:43;;;;;;;15.82;8.88;;;;;;;8.68;39.07;103251.41;10146599;28;20085;-64
2022/03/20 21:14:58;;;;;;;16.55;9.95;;;;;;;8.53;38.15;103257.38;10137712;28;20046;-65
2022/03/20 21:19:55;;;;;;;18.95;9.90;;;;;;;8.68;38.30;103261.47;10142709;28;20058;-65
2022/03/20 21:24:52;;;;;;;14.90;8.10;;;;;;;8.58;38.93;103252.00;10144124;28;20042;-65
2022/03/20 21:29:49;;;;;;;18.08;9.15;;;;;;;8.54;38.66;103256.31;10144026;28;20042;-65
2022/03/20 21:34:46;;;;;;;17.55;9.55;;;;;;;8.46;38.21;103253.94;10144349;28;20162;-65
2022/03/20 21:39:47;;;;;;;21.10;8.95;;;;;;;8.33;38.04;103243.28;10153758;28;20046;-65
2022/03/20 21:44:44;;;;;;;15.13;8.20;;;;;;;8.33;37.70;103248.72;10153786;28;20100;-65
2022/03/20 21:49:40;;;;;;;15.82;8.82;;;;;;;8.38;37.93;103252.41;10154097;28;20046;-65
2022/03/20 21:54:37;;;;;;;17.20;8.70;;;;;;;8.14;39.43;103251.59;10153334;28;20061;-65
2022/03/20 21:59:33;;;;;;;18.35;9.00;;;;;;;7.95;38.76;103250.09;10152567;28;20075;-65
2022/03/20 22:04:30;;;;;;;14.75;9.07;;;;;;;8.02;39.17;103248.91;10153952;28;20081;-65
2022/03/20 22:09:26;;;;;;;19.13;7.57;;;;;;;7.98;39.18;103249.63;10152152;28;20104;-65
2022/03/20 22:14:23;;;;;;;15.15;7.85;;;;;;;7.98;38.24;103236.00;10153702;28;20070;-65
2022/03/20 22:19:20;;;;;;;14.93;8.15;;;;;;;7.90;37.96;103228.19;10153096;28;20046;-65
2022/03/20 22:24:16;;;;;;;19.88;9.93;;;;;;;7.76;39.80;103230.34;10153590;28;20081;-65
2022/03/20 22:29:13;;;;;;;14.45;8.18;;;;;;;7.88;39.78;103224.88;10151434;28;20042;-65
2022/03/20 22:34:09;;;;;;;16.20;9.27;;;;;;;7.89;38.14;103221.06;10150286;28;20089;-65
2022/03/20 22:39:07;;;;;;;15.10;8.65;;;;;;;7.81;37.90;103225.00;10153559;28;20050;-65
2022/03/20 22:44:05;;;;;;;13.20;7.55;;;;;;;7.73;38.51;103234.38;10151520;28;20596;-68
2022/03/20 22:50:03;;;;;;;14.88;8.57;;;;;;;7.76;38.27;103233.88;10149267;28;20046;-68
2022/03/20 22:54:28;;;;;;;13.48;8.15;;;;;;;7.62;37.99;103227.03;10175216;28;20038;-67
2022/03/20 22:59:25;;;;;;;14.93;8.43;;;;;;;7.62;37.77;103224.28;10191417;28;20132;-68
2022/03/20 23:04:22;;;;;;;13.82;7.93;;;;;;;7.56;37.63;103222.50;10189042;28;20527;-67
2022/03/20 23:09:18;;;;;;;15.45;8.63;;;;;;;7.45;37.49;103221.47;10191226;28;20046;-67
2022/03/20 23:14:15;;;;;;;14.02;8.27;;;;;;;7.50;38.27;103228.91;10191585;28;20095;-66
2022/03/20 23:19:12;;;;;;;14.02;7.53;;;;;;;7.36;38.46;103218.25;10191091;28;20130;-67
2022/03/20 23:24:08;;;;;;;12.82;7.85;;;;;;;7.34;38.78;103220.38;10189845;28;20092;-67
2022/03/20 23:29:05;;;;;;;13.95;8.05;;;;;;;7.27;38.85;103218.81;10191002;28;20156;-67
2022/03/20 23:34:02;;;;;;;16.25;8.00;;;;;;;7.20;38.33;103229.81;10191561;28;20038;-67
2022/03/20 23:38:58;;;;;;;13.73;8.10;;;;;;;7.24;38.58;103231.00;10188347;28;20095;-67